createdAt,value
2019-01-25T00:00:15.656Z,41.08
2019-01-25T00:05:16.949Z,65.35
2019-01-25T00:10:20.179Z,57.88
2019-01-25T00:15:21.553Z,51.08
2019-01-25T00:20:22.946Z,39.45
2019-01-25T00:25:24.326Z,38.67
2019-01-25T00:30:25.669Z,39.42
2019-01-25T00:35:27.384Z,38.02
2019-01-25T00:40:28.750Z,61.92
2019-01-25T00:45:30.060Z,46.85
2019-01-25T00:50:31.499Z,44.77
2019-01-25T00:55:32.985Z,44.95
2019-01-25T01:00:34.491Z,43.60
2019-01-25T01:05:35.917Z,38.55
2019-01-25T01:10:41.650Z,41.20
2019-01-25T01:15:43.011Z,39.80
2019-01-25T01:20:44.377Z,44.55
2019-01-25T01:25:45.715Z,39.85
2019-01-25T01:30:47.232Z,39.98
2019-01-25T01:35:48.566Z,38.15
2019-01-25T01:40:49.965Z,39.40
2019-01-25T01:45:51.449Z,42.10
2019-01-25T01:50:52.897Z,40.40
2019-01-25T01:55:54.201Z,39.42
2019-01-25T02:00:55.680Z,37.67
2019-01-25T02:05:56.989Z,41.28
2019-01-25T02:10:58.307Z,39.63
2019-01-25T02:15:59.670Z,40.08
2019-01-25T02:21:01.079Z,40.85
2019-01-25T02:26:02.379Z,38.45
2019-01-25T02:31:03.745Z,38.90
2019-01-25T02:36:05.591Z,40.08
2019-01-25T02:41:06.971Z,42.25
2019-01-25T02:46:08.318Z,40.05
2019-01-25T02:51:09.628Z,39.48
2019-01-25T02:56:10.972Z,40.20
2019-01-25T03:01:12.305Z,40.45
2019-01-25T03:06:13.769Z,40.60
2019-01-25T03:11:15.107Z,40.10
2019-01-25T03:16:16.449Z,43.78
2019-01-25T03:21:17.754Z,41.80
2019-01-25T03:26:19.078Z,41.88
2019-01-25T03:31:20.385Z,42.53
2019-01-25T03:36:21.714Z,45.20
2019-01-25T03:41:23.048Z,42.13
2019-01-25T03:46:24.384Z,41.10
2019-01-25T03:51:25.789Z,40.95
2019-01-25T03:56:27.106Z,40.92
2019-01-25T04:01:28.608Z,39.38
2019-01-25T04:06:29.972Z,42.60
2019-01-25T04:11:31.336Z,38.23
2019-01-25T04:16:32.769Z,41.90
2019-01-25T04:21:34.105Z,39.55
2019-01-25T04:26:35.599Z,40.58
2019-01-25T04:31:37.035Z,42.03
2019-01-25T04:41:57.959Z,39.58
2019-01-25T04:46:59.342Z,38.30
2019-01-25T04:52:00.688Z,39.60
2019-01-25T04:57:02.053Z,40.28
2019-01-25T05:02:04.019Z,38.88
2019-01-25T05:07:05.745Z,40.88
2019-01-25T05:12:07.115Z,41.23
2019-01-25T05:17:08.515Z,39.10
2019-01-25T05:22:09.802Z,38.10
2019-01-25T05:27:12.792Z,40.05
2019-01-25T05:32:14.205Z,38.67
2019-01-25T05:37:15.609Z,40.95
2019-01-25T05:42:35.395Z,39.08
2019-01-25T05:47:36.679Z,40.83
2019-01-25T05:52:37.959Z,44.35
2019-01-25T05:57:39.245Z,39.88
2019-01-25T06:02:50.523Z,42.56
2019-01-25T06:07:51.816Z,40.92
2019-01-25T06:12:53.175Z,41.83
2019-01-25T06:18:00.244Z,42.23
2019-01-25T06:23:01.534Z,42.88
2019-01-25T06:28:04.717Z,40.17
2019-01-25T06:33:06.043Z,42.08
2019-01-25T06:38:07.379Z,41.00
2019-01-25T06:43:08.656Z,42.33
2019-01-25T06:48:10.059Z,44.13
2019-01-25T06:53:11.520Z,42.03
2019-01-25T06:58:17.579Z,43.87
2019-01-25T07:03:18.867Z,39.85
2019-01-25T07:08:20.175Z,44.03
2019-01-25T07:13:21.459Z,41.35
2019-01-25T07:18:22.779Z,41.70
2019-01-25T07:23:24.108Z,43.25
2019-01-25T07:28:25.482Z,41.65
2019-01-25T07:33:27.071Z,43.35
2019-01-25T07:38:28.386Z,43.68
2019-01-25T07:43:30.071Z,44.85
2019-01-25T07:48:31.410Z,38.33
2019-01-25T07:53:32.808Z,37.85
2019-01-25T07:58:34.405Z,43.08
2019-01-25T08:03:35.694Z,43.45
2019-01-25T08:08:36.989Z,42.00
2019-01-25T08:13:38.351Z,36.40
2019-01-25T08:18:39.684Z,36.10
2019-01-25T08:23:41.145Z,36.55
2019-01-25T08:28:42.521Z,35.10
2019-01-25T08:33:43.837Z,31.85
2019-01-25T08:38:45.416Z,28.05
2019-01-25T08:43:46.813Z,31.10
2019-01-25T08:48:48.243Z,29.52
2019-01-25T08:53:49.876Z,29.87
2019-01-25T08:58:51.342Z,29.85
2019-01-25T09:03:52.858Z,29.72
2019-01-25T09:08:54.156Z,30.65
2019-01-25T09:13:55.731Z,30.37
2019-01-25T09:18:57.183Z,29.87
2019-01-25T09:23:58.554Z,31.55
2019-01-25T09:28:59.847Z,33.02
2019-01-25T09:34:01.292Z,33.18
2019-01-25T09:39:06.328Z,33.13
2019-01-25T09:44:07.678Z,35.78
2019-01-25T09:49:09.114Z,33.70
2019-01-25T09:54:10.466Z,35.83
2019-01-25T09:59:11.762Z,35.23
2019-01-25T10:04:13.125Z,36.73
2019-01-25T10:09:14.473Z,37.08
2019-01-25T10:14:15.836Z,36.70
2019-01-25T10:19:17.249Z,35.60
2019-01-25T10:24:18.702Z,35.05
2019-01-25T10:29:20.039Z,34.73
2019-01-25T10:34:23.415Z,34.75
2019-01-25T10:39:24.839Z,37.30
2019-01-25T10:44:26.185Z,37.73
2019-01-25T10:49:28.733Z,36.85
2019-01-25T10:54:30.090Z,39.58
2019-01-25T10:59:31.543Z,39.00
2019-01-25T11:04:34.881Z,40.28
2019-01-25T11:09:38.267Z,38.48
2019-01-25T11:14:39.689Z,37.45
2019-01-25T11:19:40.982Z,37.78
2019-01-25T11:24:42.319Z,38.63
2019-01-25T11:29:43.710Z,38.65
2019-01-25T11:34:45.081Z,38.25
2019-01-25T11:39:49.165Z,37.20
2019-01-25T11:44:49.858Z,35.78
2019-01-25T11:49:51.252Z,33.80
2019-01-25T11:54:52.668Z,35.23
2019-01-25T11:59:53.954Z,34.18
2019-01-25T12:04:55.463Z,35.35
2019-01-25T12:09:56.814Z,34.20
2019-01-25T12:14:58.457Z,33.23
2019-01-25T12:19:59.768Z,32.88
2019-01-25T12:25:01.124Z,33.55
2019-01-25T12:30:13.738Z,33.48
2019-01-25T12:35:15.014Z,31.33
2019-01-25T12:40:18.972Z,31.55
2019-01-25T12:45:27.258Z,33.18
2019-01-25T12:50:49.429Z,34.58
2019-01-25T12:55:50.737Z,36.42
2019-01-25T13:00:52.141Z,37.25
2019-01-25T13:05:53.617Z,36.38
2019-01-25T13:10:54.935Z,36.25
2019-01-25T13:15:56.451Z,35.73
2019-01-25T13:20:57.794Z,37.03
2019-01-25T13:25:59.183Z,37.08
2019-01-25T13:31:00.609Z,37.85
2019-01-25T13:36:02.528Z,39.70
2019-01-25T13:41:04.001Z,41.05
2019-01-25T13:46:05.330Z,41.85
2019-01-25T13:51:06.659Z,41.33
2019-01-25T13:56:08.092Z,39.80
2019-01-25T14:01:09.434Z,42.05
2019-01-25T14:06:10.794Z,42.10
2019-01-25T14:11:12.167Z,39.27
2019-01-25T14:16:13.490Z,40.25
2019-01-25T14:21:14.886Z,43.10
2019-01-25T14:26:16.245Z,42.98
2019-01-25T14:31:17.579Z,42.67
2019-01-25T14:36:18.917Z,43.60
2019-01-25T14:41:20.317Z,44.30
2019-01-25T14:46:21.684Z,46.18
2019-01-25T14:51:23.024Z,44.83
2019-01-25T14:56:25.582Z,43.38
2019-01-25T15:01:27.007Z,43.33
2019-01-25T15:06:28.431Z,46.10
2019-01-25T15:11:29.764Z,46.33
2019-01-25T15:16:31.374Z,45.00
2019-01-25T15:21:32.688Z,47.20
2019-01-25T15:26:34.989Z,44.30
2019-01-25T15:31:38.017Z,48.48
2019-01-25T15:36:40.355Z,47.93
2019-01-25T15:41:42.219Z,46.58
2019-01-25T15:46:43.776Z,48.80
2019-01-25T15:51:45.839Z,46.75
2019-01-25T15:56:47.169Z,48.33
2019-01-25T16:01:49.364Z,45.85
2019-01-25T16:06:51.899Z,44.45
2019-01-25T16:17:13.727Z,38.15
2019-01-25T16:22:15.668Z,37.48
2019-01-25T16:27:17.341Z,34.95
2019-01-25T16:32:19.134Z,36.20
2019-01-25T16:37:21.123Z,35.25
2019-01-25T16:42:24.431Z,36.58
2019-01-25T16:47:25.780Z,36.53
2019-01-25T16:52:27.460Z,36.15
2019-01-25T16:57:28.833Z,37.28
2019-01-25T17:02:30.406Z,38.10
2019-01-25T17:07:31.871Z,37.30
2019-01-25T17:12:33.264Z,39.35
2019-01-25T17:17:34.916Z,38.83
2019-01-25T17:22:36.262Z,38.17
2019-01-25T17:27:37.775Z,40.92
2019-01-25T17:32:39.167Z,39.67
2019-01-25T17:37:40.569Z,37.83
2019-01-25T17:42:41.972Z,37.95
2019-01-25T17:47:43.496Z,38.15
2019-01-25T17:52:45.983Z,35.08
2019-01-25T17:57:47.434Z,39.30
2019-01-25T18:02:48.929Z,37.67
2019-01-25T18:07:52.889Z,38.63
2019-01-25T18:12:54.222Z,38.78
2019-01-25T18:17:55.803Z,39.25
2019-01-25T18:22:57.113Z,40.83
2019-01-25T18:28:03.777Z,40.25
2019-01-25T18:33:05.524Z,40.65
2019-01-25T18:38:06.789Z,39.08
2019-01-25T18:43:08.120Z,41.63
2019-01-25T18:48:10.400Z,42.43
2019-01-25T18:53:11.723Z,41.63
2019-01-25T18:58:13.060Z,41.88
2019-01-25T19:03:14.486Z,44.60
2019-01-25T19:08:15.860Z,43.17
2019-01-25T19:13:17.228Z,40.73
2019-01-25T19:18:18.929Z,42.15
2019-01-25T19:23:20.260Z,42.80
2019-01-25T19:28:21.574Z,41.55
2019-01-25T19:33:22.953Z,42.93
2019-01-25T19:38:24.649Z,41.00
2019-01-25T19:43:26.257Z,41.42
2019-01-25T19:48:27.724Z,44.42
2019-01-25T19:53:29.223Z,47.05
2019-01-25T19:58:30.659Z,48.13
2019-01-25T20:03:31.963Z,48.30
2019-01-25T20:08:34.125Z,51.85
2019-01-25T20:13:35.674Z,67.22
2019-01-25T20:18:58.411Z,60.35
2019-01-25T20:24:09.750Z,58.20
2019-01-25T20:29:11.531Z,66.97
2019-01-25T20:34:13.087Z,84.77
2019-01-25T20:39:15.212Z,74.00
2019-01-25T20:44:16.574Z,71.40
2019-01-25T20:49:18.019Z,67.17
2019-01-25T20:54:19.676Z,72.25
2019-01-25T20:59:23.003Z,71.17
2019-01-25T21:04:24.366Z,71.47
2019-01-25T21:09:25.718Z,69.87
2019-01-25T21:14:27.260Z,80.17
2019-01-25T21:19:28.605Z,86.63
2019-01-25T21:24:29.905Z,78.65
2019-01-25T21:29:31.837Z,74.90
2019-01-25T21:34:33.454Z,81.78
2019-01-25T21:39:34.799Z,80.17
2019-01-25T21:44:36.362Z,75.47
2019-01-25T21:49:37.732Z,76.02
2019-01-25T21:54:39.073Z,77.65
2019-01-25T21:59:40.440Z,73.87
2019-01-25T22:04:41.764Z,79.30
2019-01-25T22:09:43.196Z,75.67
2019-01-25T22:14:44.565Z,73.47
2019-01-25T22:19:47.072Z,76.80
2019-01-25T22:24:48.349Z,77.75
2019-01-25T22:29:49.703Z,81.78
2019-01-25T22:34:51.213Z,74.22
2019-01-25T22:39:53.614Z,76.25
2019-01-25T22:44:54.978Z,71.62
2019-01-25T22:49:56.810Z,69.27
2019-01-25T22:54:58.112Z,73.00
2019-01-25T22:59:59.451Z,64.47
2019-01-25T23:05:12.180Z,71.62
2019-01-25T23:10:13.518Z,87.22
2019-01-25T23:15:14.963Z,77.85
2019-01-25T23:20:16.336Z,62.60
2019-01-25T23:25:17.655Z,65.95
2019-01-25T23:30:19.402Z,70.03
2019-01-25T23:35:20.938Z,61.35
2019-01-25T23:40:22.386Z,71.67
2019-01-25T23:45:23.711Z,65.67
2019-01-25T23:50:25.146Z,55.98
2019-01-25T23:55:27.259Z,84.20
